createdAt,value
2022-08-23T00:02:28.122Z,4.65
2022-08-23T00:05:09.209Z,5.45
2022-08-23T00:07:43.159Z,5.35
2022-08-23T00:10:14.156Z,4.55
2022-08-23T00:12:42.559Z,4.43
2022-08-23T00:15:14.375Z,4.05
2022-08-23T00:17:43.436Z,3.62
2022-08-23T00:20:14.543Z,4.95
2022-08-23T00:22:42.649Z,4.62
2022-08-23T00:25:13.103Z,4.75
2022-08-23T00:27:41.628Z,4.30
2022-08-23T00:30:11.912Z,4.03
2022-08-23T00:32:41.496Z,4.45
2022-08-23T00:35:12.172Z,5.05
2022-08-23T00:37:42.075Z,3.92
2022-08-23T00:40:15.594Z,5.12
2022-08-23T00:43:16.439Z,6.32
2022-08-23T00:46:34.675Z,4.32
2022-08-23T00:49:05.510Z,6.43
2022-08-23T00:51:53.042Z,3.58
2022-08-23T00:54:24.529Z,3.85
2022-08-23T00:56:53.070Z,3.28
2022-08-23T00:59:20.907Z,4.57
2022-08-23T01:01:49.503Z,5.80
2022-08-23T01:04:18.534Z,3.97
2022-08-23T01:06:57.637Z,5.32
2022-08-23T01:09:25.402Z,4.18
2022-08-23T01:11:55.938Z,3.83
2022-08-23T01:14:31.038Z,5.07
2022-08-23T01:17:08.547Z,5.32
2022-08-23T01:19:58.838Z,3.92
2022-08-23T01:22:35.458Z,3.70
2022-08-23T01:25:09.561Z,4.82
2022-08-23T01:27:39.233Z,3.55
2022-08-23T01:30:09.433Z,4.32
2022-08-23T01:32:42.914Z,6.30
2022-08-23T01:35:11.166Z,4.50
2022-08-23T01:37:39.029Z,3.87
2022-08-23T01:40:07.356Z,4.10
2022-08-23T01:42:35.246Z,5.15
2022-08-23T01:45:03.023Z,3.75
2022-08-23T01:47:30.826Z,3.80
2022-08-23T01:49:58.558Z,4.72
2022-08-23T01:52:26.258Z,4.60
2022-08-23T01:54:54.403Z,5.32
2022-08-23T01:57:22.086Z,4.10
2022-08-23T01:59:49.821Z,4.05
2022-08-23T02:02:18.099Z,4.90
2022-08-23T02:04:45.743Z,6.50
2022-08-23T02:07:13.485Z,4.85
2022-08-23T02:09:41.403Z,4.00
2022-08-23T02:12:09.878Z,6.25
2022-08-23T02:14:43.275Z,4.45
2022-08-23T02:17:11.281Z,4.20
2022-08-23T02:19:39.806Z,3.83
2022-08-23T02:22:09.480Z,5.50
2022-08-23T02:24:41.790Z,3.75
2022-08-23T02:27:10.233Z,5.28
2022-08-23T02:29:39.658Z,4.10
2022-08-23T02:32:08.338Z,4.05
2022-08-23T02:34:37.600Z,6.10
2022-08-23T02:37:05.726Z,6.15
2022-08-23T02:39:33.761Z,4.20
2022-08-23T02:42:02.140Z,3.58
2022-08-23T02:44:31.351Z,5.55
2022-08-23T02:46:59.067Z,5.97
2022-08-23T02:49:26.753Z,3.92
2022-08-23T02:51:54.865Z,4.60
2022-08-23T02:54:22.814Z,5.50
2022-08-23T02:56:50.590Z,4.55
2022-08-23T02:59:18.505Z,6.40
2022-08-23T03:01:46.569Z,5.22
2022-08-23T03:04:14.295Z,4.60
2022-08-23T03:06:42.662Z,5.25
2022-08-23T03:09:10.491Z,5.75
2022-08-23T03:11:39.432Z,4.97
2022-08-23T03:14:07.528Z,5.70
2022-08-23T03:16:35.584Z,4.80
2022-08-23T03:19:03.435Z,5.10
2022-08-23T03:21:31.213Z,4.43
2022-08-23T03:24:00.295Z,5.85
2022-08-23T03:26:28.096Z,4.90
2022-08-23T03:28:56.676Z,5.68
2022-08-23T03:31:24.482Z,5.40
2022-08-23T03:33:52.617Z,4.40
2022-08-23T03:36:21.374Z,4.95
2022-08-23T03:38:55.901Z,4.55
2022-08-23T03:41:23.840Z,5.97
2022-08-23T03:43:51.955Z,5.40
2022-08-23T03:46:25.580Z,5.32
2022-08-23T03:49:00.727Z,7.10
2022-08-23T03:51:31.059Z,5.78
2022-08-23T03:53:59.378Z,5.37
2022-08-23T03:56:33.831Z,4.85
2022-08-23T03:59:05.901Z,5.10
2022-08-23T04:01:33.817Z,6.25
2022-08-23T04:04:01.817Z,5.62
2022-08-23T04:06:30.576Z,5.12
2022-08-23T04:08:58.260Z,6.22
2022-08-23T04:11:26.617Z,7.12
2022-08-23T04:13:54.951Z,6.07
2022-08-23T04:16:22.846Z,5.20
2022-08-23T04:18:50.854Z,5.65
2022-08-23T04:21:23.524Z,5.75
2022-08-23T04:23:51.340Z,5.28
2022-08-23T04:26:19.199Z,6.43
2022-08-23T04:28:48.029Z,5.85
2022-08-23T04:31:17.132Z,6.10
2022-08-23T04:33:45.940Z,5.70
2022-08-23T04:36:20.731Z,6.05
2022-08-23T04:38:51.654Z,6.05
2022-08-23T04:41:38.481Z,5.43
2022-08-23T04:44:06.853Z,5.40
2022-08-23T04:46:34.684Z,7.00
2022-08-23T04:49:02.477Z,5.70
2022-08-23T04:51:30.495Z,6.55
2022-08-23T04:53:58.412Z,6.15
2022-08-23T04:56:26.147Z,7.45
2022-08-23T04:58:54.156Z,5.87
2022-08-23T05:01:22.066Z,6.72
2022-08-23T05:03:49.792Z,8.70
2022-08-23T05:06:17.445Z,5.87
2022-08-23T05:08:45.153Z,7.22
2022-08-23T05:11:13.169Z,6.75
2022-08-23T05:13:41.172Z,7.62
2022-08-23T05:16:09.180Z,5.78
2022-08-23T05:18:37.077Z,6.20
2022-08-23T05:21:05.387Z,5.57
2022-08-23T05:23:33.741Z,6.57
2022-08-23T05:26:01.933Z,6.43
2022-08-23T05:28:32.994Z,5.85
2022-08-23T05:31:05.859Z,5.95
2022-08-23T05:33:38.727Z,5.60
2022-08-23T05:36:07.143Z,5.50
2022-08-23T05:38:35.385Z,5.87
2022-08-23T05:41:05.369Z,7.15
2022-08-23T05:43:35.742Z,7.32
2022-08-23T05:46:14.970Z,7.62
2022-08-23T05:48:48.240Z,7.37
2022-08-23T05:51:28.797Z,5.03
2022-08-23T05:54:00.159Z,4.85
2022-08-23T05:56:31.251Z,4.55
2022-08-23T05:59:02.119Z,8.20
2022-08-23T06:01:31.716Z,4.70
2022-08-23T06:04:04.646Z,7.22
2022-08-23T06:06:35.000Z,6.95
2022-08-23T06:09:06.648Z,6.30
2022-08-23T06:11:35.093Z,4.87
2022-08-23T06:14:06.172Z,6.85
2022-08-23T06:16:43.237Z,5.68
2022-08-23T06:19:11.122Z,5.05
2022-08-23T06:21:39.688Z,4.57
2022-08-23T06:24:09.414Z,5.90
2022-08-23T06:26:41.556Z,5.10
2022-08-23T06:29:19.145Z,5.28
2022-08-23T06:31:50.085Z,4.50
2022-08-23T06:34:22.385Z,5.87
2022-08-23T06:36:53.925Z,4.75
2022-08-23T06:39:24.853Z,4.35
2022-08-23T06:41:53.255Z,4.95
2022-08-23T06:44:21.505Z,6.20
2022-08-23T06:46:50.351Z,5.47
2022-08-23T06:49:18.189Z,4.47
2022-08-23T06:51:52.369Z,5.47
2022-08-23T06:54:24.086Z,4.97
2022-08-23T06:56:55.200Z,4.35
2022-08-23T06:59:23.269Z,4.43
2022-08-23T07:01:50.916Z,3.92
2022-08-23T07:04:41.390Z,4.07
2022-08-23T07:07:11.847Z,4.47
2022-08-23T07:09:41.174Z,4.50
2022-08-23T07:12:10.132Z,5.65
2022-08-23T07:14:39.178Z,4.72
2022-08-23T07:17:07.052Z,3.65
2022-08-23T07:19:36.423Z,5.28
2022-08-23T07:22:05.884Z,4.62
2022-08-23T07:24:34.264Z,4.43
2022-08-23T07:27:07.417Z,4.50
2022-08-23T07:29:37.329Z,4.85
2022-08-23T07:32:06.120Z,5.50
2022-08-23T07:34:34.385Z,5.40
2022-08-23T07:37:02.753Z,4.57
2022-08-23T07:39:32.874Z,4.75
2022-08-23T07:42:22.648Z,5.18
2022-08-23T07:44:52.690Z,7.85
2022-08-23T07:47:21.087Z,3.95
2022-08-23T07:49:48.763Z,4.35
2022-08-23T07:52:16.495Z,3.65
2022-08-23T07:54:48.657Z,5.07
2022-08-23T07:57:17.309Z,4.60
2022-08-23T07:59:45.005Z,4.30
2022-08-23T08:02:12.721Z,4.25
2022-08-23T08:04:41.077Z,3.67
2022-08-23T08:07:19.240Z,4.78
2022-08-23T08:09:48.376Z,4.05
2022-08-23T08:12:16.166Z,4.75
2022-08-23T08:14:44.024Z,4.15
2022-08-23T08:17:11.855Z,4.07
2022-08-23T08:19:39.897Z,3.83
2022-08-23T08:22:07.577Z,5.22
2022-08-23T08:24:35.325Z,3.85
2022-08-23T08:27:03.093Z,5.20
2022-08-23T08:29:30.896Z,6.60
2022-08-23T08:31:58.857Z,8.02
2022-08-23T08:34:26.715Z,4.40
2022-08-23T08:36:58.475Z,4.32
2022-08-23T08:39:33.745Z,6.25
2022-08-23T08:42:13.586Z,5.75
2022-08-23T08:44:50.907Z,4.05
2022-08-23T08:47:32.040Z,3.53
2022-08-23T08:50:10.785Z,4.18
2022-08-23T08:52:52.774Z,3.95
2022-08-23T08:55:25.321Z,4.37
2022-08-23T08:57:56.263Z,4.35
2022-08-23T09:00:35.441Z,3.75
2022-08-23T09:03:15.426Z,4.22
2022-08-23T09:06:00.872Z,3.60
2022-08-23T09:08:40.821Z,3.58
2022-08-23T09:11:08.484Z,4.22
2022-08-23T09:14:01.282Z,4.50
2022-08-23T09:16:40.887Z,4.00
2022-08-23T09:19:08.720Z,5.25
2022-08-23T09:21:58.667Z,3.78
2022-08-23T09:24:27.633Z,4.55
2022-08-23T09:26:55.439Z,3.28
2022-08-23T09:29:25.355Z,5.93
2022-08-23T09:32:14.332Z,3.50
2022-08-23T09:34:44.110Z,5.50
2022-08-23T09:37:14.434Z,3.70
2022-08-23T09:40:03.468Z,3.55
2022-08-23T09:42:38.291Z,3.47
2022-08-23T09:45:25.059Z,4.25
2022-08-23T09:47:52.802Z,3.92
2022-08-23T09:50:40.076Z,5.78
2022-08-23T09:53:12.032Z,4.57
2022-08-23T09:55:49.815Z,3.20
2022-08-23T09:58:32.612Z,5.62
2022-08-23T10:01:20.324Z,3.67
2022-08-23T10:03:49.064Z,3.70
2022-08-23T10:06:32.500Z,4.00
2022-08-23T10:09:06.336Z,4.00
2022-08-23T10:11:42.777Z,3.28
2022-08-23T10:14:10.942Z,3.55
2022-08-23T10:16:49.839Z,3.08
2022-08-23T10:19:50.951Z,3.00
2022-08-23T10:22:27.253Z,3.47
2022-08-23T10:24:54.891Z,3.08
2022-08-23T10:27:51.928Z,3.42
2022-08-23T10:30:29.815Z,3.28
2022-08-23T10:33:18.630Z,2.80
2022-08-23T10:36:11.138Z,2.80
2022-08-23T10:38:58.574Z,3.08
2022-08-23T10:41:44.656Z,2.37
2022-08-23T10:44:41.668Z,4.40
2022-08-23T10:47:17.429Z,3.05
2022-08-23T10:49:50.521Z,2.50
2022-08-23T10:52:32.298Z,2.78
2022-08-23T10:55:18.035Z,2.78
2022-08-23T10:57:49.114Z,2.15
2022-08-23T11:00:23.719Z,3.95
2022-08-23T11:03:26.868Z,1.85
2022-08-23T11:06:34.298Z,2.78
2022-08-23T11:09:30.437Z,3.92
2022-08-23T11:12:07.068Z,2.47
2022-08-23T11:14:47.957Z,2.80
2022-08-23T11:17:43.520Z,1.80
2022-08-23T11:20:14.272Z,2.83
2022-08-23T11:23:05.044Z,1.48
2022-08-23T11:25:32.677Z,1.40
2022-08-23T11:28:25.229Z,1.48
2022-08-23T11:30:58.523Z,1.60
2022-08-23T11:33:35.653Z,2.58
2022-08-23T11:36:09.490Z,1.27
2022-08-23T11:38:49.389Z,1.70
2022-08-23T11:41:20.087Z,1.40
2022-08-23T11:43:51.013Z,1.30
2022-08-23T11:46:25.256Z,1.60
2022-08-23T11:49:17.323Z,2.97
2022-08-23T11:52:22.547Z,2.78
2022-08-23T11:55:06.226Z,3.72
2022-08-23T11:58:11.296Z,2.05
2022-08-23T12:01:08.496Z,2.72
2022-08-23T12:03:46.125Z,2.12
2022-08-23T12:06:19.916Z,3.70
2022-08-23T12:08:55.844Z,2.28
2022-08-23T12:11:26.587Z,4.15
2022-08-23T12:14:01.309Z,1.75
2022-08-23T12:16:34.446Z,1.92
2022-08-23T12:19:09.734Z,2.12
2022-08-23T12:21:43.091Z,1.73
2022-08-23T12:24:23.810Z,2.17
2022-08-23T12:27:00.175Z,2.37
2022-08-23T12:30:08.823Z,2.10
2022-08-23T12:32:53.352Z,2.20
2022-08-23T12:35:29.436Z,4.75
2022-08-23T12:37:57.063Z,2.25
2022-08-23T12:40:51.815Z,2.80
2022-08-23T12:43:30.641Z,1.80
2022-08-23T12:46:01.935Z,2.12
2022-08-23T12:48:32.990Z,2.95
2022-08-23T12:51:09.159Z,3.67
2022-08-23T12:53:45.051Z,2.50
2022-08-23T12:56:31.652Z,3.70
2022-08-23T12:59:05.848Z,2.33
2022-08-23T13:01:38.452Z,2.33
2022-08-23T13:04:11.909Z,2.00
2022-08-23T13:06:49.945Z,3.37
2022-08-23T13:09:34.919Z,2.37
2022-08-23T13:12:03.569Z,3.60
2022-08-23T13:14:46.392Z,2.95
2022-08-23T13:17:20.103Z,2.87
2022-08-23T13:19:50.573Z,2.70
2022-08-23T13:22:26.516Z,2.00
2022-08-23T13:25:27.689Z,2.72
2022-08-23T13:27:49.633Z,3.00
2022-08-23T13:30:18.785Z,2.05
2022-08-23T13:33:14.482Z,4.50
2022-08-23T13:35:46.982Z,4.72
2022-08-23T13:38:22.880Z,2.47
2022-08-23T13:41:01.965Z,2.03
2022-08-23T13:43:40.535Z,2.47
2022-08-23T13:46:27.583Z,2.78
2022-08-23T13:49:06.266Z,1.90
2022-08-23T13:51:42.962Z,2.50
2022-08-23T13:54:14.142Z,3.47
2022-08-23T13:56:50.907Z,2.10
2022-08-23T13:59:32.893Z,1.80
2022-08-23T14:02:03.062Z,3.70
2022-08-23T14:04:30.825Z,4.35
2022-08-23T14:06:58.561Z,4.00
2022-08-23T14:09:26.523Z,2.62
2022-08-23T14:11:58.529Z,2.17
2022-08-23T14:14:31.105Z,3.35
2022-08-23T14:17:02.641Z,3.83
2022-08-23T14:22:20.868Z,2.25
2022-08-23T14:24:48.534Z,2.28
2022-08-23T14:27:16.561Z,2.37
2022-08-23T14:29:44.253Z,4.75
2022-08-23T14:32:12.088Z,1.62
2022-08-23T14:34:39.765Z,2.08
2022-08-23T14:39:55.219Z,1.95
2022-08-23T14:42:25.306Z,2.70
2022-08-23T14:44:53.029Z,2.20
2022-08-23T14:47:20.883Z,4.50
2022-08-23T14:49:53.219Z,2.15
2022-08-23T14:52:21.596Z,2.10
2022-08-23T14:54:49.706Z,1.60
2022-08-23T14:57:17.755Z,2.80
2022-08-23T14:59:45.743Z,2.37
2022-08-23T15:02:17.626Z,2.05
2022-08-23T15:04:45.329Z,1.70
2022-08-23T15:07:20.177Z,3.10
2022-08-23T15:09:50.303Z,2.00
2022-08-23T15:15:13.590Z,3.30
2022-08-23T15:17:54.754Z,1.92
2022-08-23T15:20:25.229Z,5.07
2022-08-23T15:22:55.487Z,2.55
2022-08-23T15:25:24.889Z,2.05
2022-08-23T15:27:53.325Z,2.05
2022-08-23T15:30:22.014Z,3.33
2022-08-23T15:32:52.701Z,2.03
2022-08-23T15:35:25.080Z,1.95
2022-08-23T15:37:55.591Z,1.95
2022-08-23T15:40:25.699Z,1.95
2022-08-23T15:42:53.821Z,2.92
2022-08-23T15:45:21.568Z,2.00
2022-08-23T15:47:56.340Z,3.00
2022-08-23T15:50:28.526Z,1.60
2022-08-23T15:52:56.581Z,1.92
2022-08-23T15:55:25.681Z,1.80
2022-08-23T15:57:54.853Z,2.35
2022-08-23T16:00:24.051Z,4.15
2022-08-23T16:03:20.685Z,2.30
2022-08-23T16:05:42.584Z,1.70
2022-08-23T16:08:19.381Z,1.85
2022-08-23T16:10:47.317Z,1.60
2022-08-23T16:13:15.245Z,1.95
2022-08-23T16:15:42.920Z,2.40
2022-08-23T16:18:11.495Z,2.33
2022-08-23T16:20:39.783Z,2.42
2022-08-23T16:23:08.340Z,1.55
2022-08-23T16:25:36.221Z,3.78
2022-08-23T16:28:05.363Z,2.92
2022-08-23T16:30:33.375Z,1.70
2022-08-23T16:33:01.273Z,1.87
2022-08-23T16:35:29.033Z,3.17
2022-08-23T16:37:56.850Z,2.72
2022-08-23T16:40:24.848Z,2.87
2022-08-23T16:42:53.853Z,1.90
2022-08-23T16:45:25.180Z,2.00
2022-08-23T16:47:54.428Z,3.33
2022-08-23T16:50:22.308Z,1.85
2022-08-23T16:52:50.025Z,1.52
2022-08-23T16:55:18.209Z,3.12
2022-08-23T16:57:46.123Z,1.42
2022-08-23T17:00:15.116Z,2.35
2022-08-23T17:02:44.904Z,1.70
2022-08-23T17:05:17.368Z,1.48
2022-08-23T17:07:45.098Z,2.50
2022-08-23T17:10:15.266Z,3.33
2022-08-23T17:12:47.067Z,2.62
2022-08-23T17:15:20.530Z,3.33
2022-08-23T17:17:49.451Z,2.28
2022-08-23T17:20:18.835Z,1.92
2022-08-23T17:22:47.429Z,2.67
2022-08-23T17:25:15.226Z,2.12
2022-08-23T17:27:46.222Z,1.55
2022-08-23T17:30:17.385Z,2.60
2022-08-23T17:32:47.560Z,1.90
2022-08-23T17:35:17.848Z,1.60
2022-08-23T17:37:45.636Z,1.80
2022-08-23T17:40:17.581Z,1.70
2022-08-23T17:42:49.071Z,1.80
2022-08-23T17:45:17.987Z,1.83
2022-08-23T17:47:46.148Z,2.28
2022-08-23T17:50:14.210Z,2.28
2022-08-23T17:52:42.446Z,3.58
2022-08-23T17:55:10.900Z,3.50
2022-08-23T17:57:39.080Z,2.03
2022-08-23T18:00:09.572Z,1.87
2022-08-23T18:02:37.373Z,1.87
2022-08-23T18:05:06.777Z,5.37
2022-08-23T18:07:34.999Z,2.87
2022-08-23T18:10:03.210Z,2.05
2022-08-23T18:12:30.976Z,2.42
2022-08-23T18:14:58.724Z,2.92
2022-08-23T18:17:26.438Z,2.53
2022-08-23T18:19:54.383Z,1.95
2022-08-23T18:22:22.127Z,1.65
2022-08-23T18:24:49.969Z,2.87
2022-08-23T18:27:36.540Z,1.77
2022-08-23T18:30:05.811Z,3.00
2022-08-23T18:32:34.178Z,3.45
2022-08-23T18:35:01.913Z,2.72
2022-08-23T18:37:29.625Z,2.83
2022-08-23T18:39:57.559Z,6.95
2022-08-23T18:42:25.750Z,4.32
2022-08-23T18:44:53.658Z,3.22
2022-08-23T18:47:21.358Z,2.25
2022-08-23T18:49:49.784Z,3.55
2022-08-23T18:52:17.921Z,4.55
2022-08-23T18:54:45.774Z,2.58
2022-08-23T18:57:15.938Z,3.08
2022-08-23T18:59:44.131Z,3.20
2022-08-23T19:02:11.992Z,2.28
2022-08-23T19:04:40.164Z,2.35
2022-08-23T19:07:09.378Z,2.35
2022-08-23T19:09:38.061Z,2.70
2022-08-23T19:12:07.436Z,2.28
2022-08-23T19:14:36.780Z,2.50
2022-08-23T19:17:06.203Z,2.28
2022-08-23T19:19:35.235Z,3.37
2022-08-23T19:22:04.558Z,3.37
2022-08-23T19:24:32.633Z,4.55
2022-08-23T19:27:00.387Z,2.72
2022-08-23T19:29:28.328Z,2.85
2022-08-23T19:31:56.137Z,4.72
2022-08-23T19:34:24.114Z,3.12
2022-08-23T19:37:00.246Z,5.70
2022-08-23T19:39:29.789Z,3.35
2022-08-23T19:41:57.923Z,3.37
2022-08-23T19:44:25.720Z,4.40
2022-08-23T19:46:55.936Z,3.25
2022-08-23T19:49:24.309Z,6.28
2022-08-23T19:51:52.191Z,4.75
2022-08-23T19:54:20.257Z,7.43
2022-08-23T19:56:51.604Z,3.78
2022-08-23T19:59:26.438Z,6.82
2022-08-23T20:01:55.571Z,7.12
2022-08-23T20:04:25.521Z,4.28
2022-08-23T20:06:54.427Z,6.15
2022-08-23T20:09:23.649Z,6.12
2022-08-23T20:11:53.740Z,4.45
2022-08-23T20:14:25.886Z,4.22
2022-08-23T20:16:55.409Z,5.22
2022-08-23T20:19:23.426Z,4.53
2022-08-23T20:21:51.384Z,4.62
2022-08-23T20:24:28.928Z,4.30
2022-08-23T20:27:07.140Z,5.07
2022-08-23T20:29:39.054Z,5.65
2022-08-23T20:32:07.407Z,4.65
2022-08-23T20:34:36.914Z,6.82
2022-08-23T20:37:06.251Z,6.70
2022-08-23T20:39:34.251Z,4.70
2022-08-23T20:42:01.987Z,5.68
2022-08-23T20:44:29.848Z,5.22
2022-08-23T20:47:02.768Z,4.37
2022-08-23T20:49:31.096Z,6.35
2022-08-23T20:51:58.738Z,4.82
2022-08-23T20:54:26.520Z,5.55
2022-08-23T20:56:54.238Z,5.05
2022-08-23T20:59:22.372Z,4.12
2022-08-23T21:01:51.079Z,5.60
2022-08-23T21:04:20.041Z,6.37
2022-08-23T21:06:51.498Z,4.97
2022-08-23T21:09:28.888Z,4.85
2022-08-23T21:11:57.448Z,4.03
2022-08-23T21:14:25.281Z,3.90
2022-08-23T21:16:53.227Z,3.70
2022-08-23T21:19:20.963Z,7.35
2022-08-23T21:21:48.746Z,4.65
2022-08-23T21:24:17.037Z,5.18
2022-08-23T21:26:44.768Z,4.78
2022-08-23T21:29:12.752Z,7.25
2022-08-23T21:31:40.780Z,5.75
2022-08-23T21:34:09.423Z,5.35
2022-08-23T21:36:38.312Z,4.72
2022-08-23T21:39:06.291Z,5.95
2022-08-23T21:41:36.046Z,3.72
2022-08-23T21:44:06.852Z,5.72
2022-08-23T21:46:34.921Z,5.10
2022-08-23T21:49:03.120Z,5.20
2022-08-23T21:51:30.974Z,8.77
2022-08-23T21:53:59.620Z,3.67
2022-08-23T21:56:28.851Z,4.30
2022-08-23T21:59:05.958Z,4.15
2022-08-23T22:01:37.564Z,3.62
2022-08-23T22:04:07.397Z,3.60
2022-08-23T22:06:36.161Z,4.12
2022-08-23T22:09:05.370Z,4.37
2022-08-23T22:11:33.106Z,3.45
2022-08-23T22:14:01.430Z,2.92
2022-08-23T22:16:29.486Z,4.50
2022-08-23T22:18:57.176Z,5.50
2022-08-23T22:21:25.093Z,4.03
2022-08-23T22:23:53.576Z,4.00
2022-08-23T22:26:21.268Z,4.32
2022-08-23T22:28:49.621Z,4.62
2022-08-23T22:31:17.449Z,4.22
2022-08-23T22:33:46.256Z,3.62
2022-08-23T22:36:18.133Z,5.10
2022-08-23T22:38:47.056Z,4.22
2022-08-23T22:41:20.314Z,4.22
2022-08-23T22:43:48.037Z,3.87
2022-08-23T22:46:16.007Z,5.72
2022-08-23T22:48:44.033Z,4.47
2022-08-23T22:51:14.669Z,4.50
2022-08-23T22:53:45.630Z,3.37
2022-08-23T22:56:16.422Z,4.03
2022-08-23T22:58:45.020Z,3.42
2022-08-23T23:01:29.835Z,4.03
2022-08-23T23:04:00.940Z,3.67
2022-08-23T23:06:29.663Z,3.87
2022-08-23T23:08:58.098Z,4.05
2022-08-23T23:11:27.625Z,3.28
2022-08-23T23:13:55.513Z,4.03
2022-08-23T23:16:26.221Z,3.75
2022-08-23T23:19:12.852Z,3.50
2022-08-23T23:21:46.889Z,3.60
2022-08-23T23:24:17.855Z,3.90
2022-08-23T23:26:47.694Z,4.22
2022-08-23T23:29:16.003Z,4.78
2022-08-23T23:31:43.899Z,4.82
2022-08-23T23:34:11.708Z,3.37
2022-08-23T23:36:39.824Z,3.30
2022-08-23T23:39:09.001Z,6.55
2022-08-23T23:41:37.007Z,3.33
2022-08-23T23:44:05.105Z,3.75
2022-08-23T23:46:33.010Z,3.50
2022-08-23T23:49:00.709Z,5.15
2022-08-23T23:51:31.539Z,5.07
2022-08-23T23:54:01.747Z,3.50
2022-08-23T23:56:31.754Z,5.68
2022-08-23T23:59:00.499Z,3.95
